createdAt,value
2023-04-16T00:02:30.329Z,66.36
2023-04-16T00:05:22.495Z,66.34
2023-04-16T00:08:14.632Z,66.67
2023-04-16T00:11:06.731Z,66.83
2023-04-16T00:13:58.943Z,66.96
2023-04-16T00:16:50.909Z,66.93
2023-04-16T00:19:42.944Z,66.95
2023-04-16T00:22:34.903Z,66.90
2023-04-16T00:25:26.763Z,66.96
2023-04-16T00:28:18.717Z,67.02
2023-04-16T00:31:13.954Z,67.01
2023-04-16T00:34:06.332Z,66.89
2023-04-16T00:36:58.362Z,67.06
2023-04-16T00:39:51.073Z,67.10
2023-04-16T00:42:43.063Z,67.53
2023-04-16T00:45:35.151Z,67.52
2023-04-16T00:48:28.318Z,67.51
2023-04-16T00:51:21.340Z,67.49
2023-04-16T00:54:13.347Z,67.46
2023-04-16T00:56:47.928Z,67.49
2023-04-16T00:59:28.767Z,67.60
2023-04-16T01:02:20.875Z,67.61
2023-04-16T01:05:13.262Z,67.49
2023-04-16T01:08:05.374Z,67.57
2023-04-16T01:10:57.422Z,67.60
2023-04-16T01:13:49.394Z,67.51
2023-04-16T01:16:41.394Z,67.88
2023-04-16T01:19:36.246Z,67.89
2023-04-16T01:22:28.409Z,67.74
2023-04-16T01:25:20.397Z,67.69
2023-04-16T01:28:12.428Z,67.70
2023-04-16T01:31:04.619Z,67.44
2023-04-16T01:33:56.513Z,67.34
2023-04-16T01:36:48.517Z,67.19
2023-04-16T01:39:40.484Z,67.42
2023-04-16T01:42:33.078Z,67.29
2023-04-16T01:45:25.213Z,67.53
2023-04-16T01:48:00.574Z,67.50
2023-04-16T01:50:52.641Z,67.48
2023-04-16T01:53:38.134Z,67.70
2023-04-16T01:56:30.154Z,67.50
2023-04-16T01:59:22.101Z,67.55
2023-04-16T02:02:16.361Z,67.56
2023-04-16T02:05:09.200Z,67.77
2023-04-16T02:08:01.284Z,67.90
2023-04-16T02:10:53.534Z,67.91
2023-04-16T02:13:45.527Z,68.11
2023-04-16T02:16:37.535Z,68.22
2023-04-16T02:19:29.763Z,68.41
2023-04-16T02:22:21.722Z,68.49
2023-04-16T02:25:14.154Z,68.55
2023-04-16T02:28:06.313Z,68.59
2023-04-16T02:30:59.104Z,68.56
2023-04-16T02:33:51.138Z,68.43
2023-04-16T02:36:43.122Z,68.63
2023-04-16T02:39:35.065Z,68.46
2023-04-16T02:42:27.204Z,68.31
2023-04-16T02:45:19.349Z,68.56
2023-04-16T02:48:09.661Z,68.49
2023-04-16T02:51:01.924Z,68.44
2023-04-16T02:53:53.893Z,68.38
2023-04-16T02:56:45.851Z,68.34
2023-04-16T02:59:37.986Z,68.35
2023-04-16T03:02:30.125Z,68.32
2023-04-16T03:05:05.563Z,68.14
2023-04-16T03:07:57.524Z,68.25
2023-04-16T03:10:49.484Z,68.32
2023-04-16T03:13:41.392Z,68.40
2023-04-16T03:16:33.369Z,68.59
2023-04-16T03:19:25.700Z,68.53
2023-04-16T03:22:02.868Z,68.65
2023-04-16T03:24:54.804Z,68.66
2023-04-16T03:27:46.836Z,68.75
2023-04-16T03:30:38.963Z,68.75
2023-04-16T03:33:31.183Z,68.70
2023-04-16T03:36:23.844Z,68.55
2023-04-16T03:39:16.175Z,68.66
2023-04-16T03:41:51.173Z,68.68
2023-04-16T03:44:43.199Z,68.74
2023-04-16T03:47:35.190Z,68.84
2023-04-16T03:50:27.230Z,68.95
2023-04-16T03:53:19.365Z,69.05
2023-04-16T03:56:11.499Z,69.40
2023-04-16T03:58:46.422Z,69.44
2023-04-16T04:01:38.486Z,69.61
2023-04-16T04:04:16.310Z,69.69
2023-04-16T04:07:08.461Z,69.78
2023-04-16T04:09:40.224Z,69.88
2023-04-16T04:12:33.334Z,70.02
2023-04-16T04:15:12.681Z,70.03
2023-04-16T04:18:04.646Z,70.08
2023-04-16T04:20:57.144Z,70.08
2023-04-16T04:23:31.749Z,70.02
2023-04-16T04:26:23.857Z,70.00
2023-04-16T04:29:15.927Z,70.15
2023-04-16T04:32:08.156Z,70.20
2023-04-16T04:35:01.143Z,70.47
2023-04-16T04:37:53.221Z,70.57
2023-04-16T04:40:45.278Z,70.47
2023-04-16T04:43:37.316Z,70.57
2023-04-16T04:46:11.872Z,70.56
2023-04-16T04:49:03.844Z,70.45
2023-04-16T04:51:56.020Z,70.50
2023-04-16T04:54:47.944Z,70.68
2023-04-16T04:57:39.901Z,70.60
2023-04-16T05:00:27.881Z,70.50
2023-04-16T05:03:22.764Z,70.52
2023-04-16T05:06:14.901Z,70.39
2023-04-16T05:09:11.462Z,70.39
2023-04-16T05:12:04.670Z,70.37
2023-04-16T05:14:56.616Z,70.53
2023-04-16T05:17:48.667Z,70.34
2023-04-16T05:20:40.783Z,70.35
2023-04-16T05:23:32.816Z,70.40
2023-04-16T05:26:24.800Z,70.58
2023-04-16T05:29:16.776Z,70.60
2023-04-16T05:31:51.402Z,70.68
2023-04-16T05:34:43.384Z,70.54
2023-04-16T05:37:35.428Z,70.77
2023-04-16T05:40:13.254Z,70.62
2023-04-16T05:43:05.269Z,70.60
2023-04-16T05:45:42.099Z,71.00
2023-04-16T05:48:34.152Z,70.77
2023-04-16T05:51:27.214Z,70.72
2023-04-16T05:54:19.239Z,70.76
2023-04-16T05:57:11.687Z,70.49
2023-04-16T06:00:03.924Z,70.39
2023-04-16T06:02:56.058Z,70.67
2023-04-16T06:05:48.233Z,70.86
2023-04-16T06:08:40.255Z,70.69
2023-04-16T06:11:34.036Z,70.71
2023-04-16T06:14:10.429Z,70.51
2023-04-16T06:16:47.433Z,72.47
2023-04-16T06:19:39.389Z,71.87
2023-04-16T06:22:31.607Z,69.83
2023-04-16T06:25:23.639Z,68.44
2023-04-16T06:28:15.665Z,68.15
2023-04-16T06:31:07.987Z,67.98
2023-04-16T06:33:59.972Z,67.15
2023-04-16T06:36:52.120Z,66.63
2023-04-16T06:39:44.192Z,65.74
2023-04-16T06:42:36.315Z,65.12
2023-04-16T06:45:28.393Z,64.32
2023-04-16T06:48:20.403Z,64.23
2023-04-16T06:51:13.093Z,64.23
2023-04-16T06:54:05.141Z,64.39
2023-04-16T06:56:57.336Z,64.01
2023-04-16T06:59:34.624Z,63.90
2023-04-16T07:02:26.998Z,63.53
2023-04-16T07:05:19.429Z,62.96
2023-04-16T07:08:11.907Z,62.84
2023-04-16T07:11:04.466Z,62.56
2023-04-16T07:13:57.691Z,61.90
2023-04-16T07:16:49.769Z,61.26
2023-04-16T07:19:30.514Z,61.05
2023-04-16T07:22:05.646Z,60.98
2023-04-16T07:24:57.646Z,60.83
2023-04-16T07:27:38.734Z,60.99
2023-04-16T07:30:34.252Z,60.44
2023-04-16T07:33:16.774Z,61.60
2023-04-16T07:35:48.811Z,61.45
2023-04-16T07:38:41.232Z,60.12
2023-04-16T07:41:33.424Z,58.91
2023-04-16T07:44:25.467Z,58.58
2023-04-16T07:47:17.622Z,58.35
2023-04-16T07:49:54.938Z,58.16
2023-04-16T07:52:47.555Z,57.64
2023-04-16T07:55:39.617Z,57.26
2023-04-16T07:58:31.870Z,57.11
2023-04-16T08:01:09.456Z,57.06
2023-04-16T08:04:01.652Z,56.54
2023-04-16T08:06:51.464Z,56.44
2023-04-16T08:09:52.115Z,56.64
2023-04-16T08:12:44.433Z,56.61
2023-04-16T08:15:36.504Z,57.41
2023-04-16T08:18:28.834Z,57.45
2023-04-16T08:21:08.449Z,57.42
2023-04-16T08:23:43.044Z,56.32
2023-04-16T08:26:20.451Z,55.82
2023-04-16T08:29:12.604Z,51.44
2023-04-16T08:32:04.771Z,50.65
2023-04-16T08:34:57.224Z,47.37
2023-04-16T08:37:49.242Z,46.54
2023-04-16T08:40:42.869Z,45.91
2023-04-16T08:43:37.915Z,46.02
2023-04-16T08:46:13.698Z,46.54
2023-04-16T08:48:54.937Z,45.05
2023-04-16T08:51:35.127Z,43.34
2023-04-16T08:54:38.747Z,41.42
2023-04-16T08:57:38.273Z,38.49
2023-04-16T09:00:32.752Z,36.77
2023-04-16T09:03:25.321Z,35.00
2023-04-16T09:06:18.243Z,34.75
2023-04-16T09:09:12.387Z,34.73
2023-04-16T09:12:05.790Z,35.25
2023-04-16T09:15:02.723Z,36.99
2023-04-16T09:17:56.478Z,35.46
2023-04-16T09:20:48.675Z,35.43
2023-04-16T09:23:38.419Z,34.33
2023-04-16T09:26:31.100Z,34.30
2023-04-16T09:29:37.351Z,34.60
2023-04-16T09:32:30.464Z,35.40
2023-04-16T09:35:22.783Z,35.40
2023-04-16T09:38:01.342Z,36.20
2023-04-16T09:41:09.440Z,36.83
2023-04-16T09:44:04.189Z,37.18
2023-04-16T09:46:46.232Z,37.11
2023-04-16T09:49:29.207Z,37.43
2023-04-16T09:52:23.372Z,37.95
2023-04-16T09:55:15.401Z,38.62
2023-04-16T09:58:12.317Z,40.10
2023-04-16T10:01:06.921Z,40.13
2023-04-16T10:03:59.598Z,39.85
2023-04-16T10:07:05.948Z,36.88
2023-04-16T10:09:59.439Z,35.72
2023-04-16T10:12:51.997Z,35.85
2023-04-16T10:15:44.329Z,36.28
2023-04-16T10:18:38.261Z,36.44
2023-04-16T10:21:33.843Z,35.92
2023-04-16T10:24:27.352Z,36.41
2023-04-16T10:27:20.379Z,38.43
2023-04-16T10:30:15.047Z,36.95
2023-04-16T10:32:58.286Z,36.83
2023-04-16T10:36:04.920Z,36.38
2023-04-16T10:39:01.852Z,34.88
2023-04-16T10:42:10.090Z,33.67
2023-04-16T10:45:04.165Z,32.82
2023-04-16T10:47:58.806Z,32.04
2023-04-16T10:50:58.723Z,31.84
2023-04-16T10:53:50.915Z,31.99
2023-04-16T10:56:45.423Z,32.59
2023-04-16T10:59:39.766Z,33.41
2023-04-16T11:02:32.436Z,34.01
2023-04-16T11:05:46.745Z,34.23
2023-04-16T11:08:53.459Z,34.12
2023-04-16T11:11:48.254Z,34.28
2023-04-16T11:14:20.393Z,34.41
2023-04-16T11:16:57.712Z,34.10
2023-04-16T11:19:50.083Z,33.62
2023-04-16T11:22:46.513Z,33.56
2023-04-16T11:25:38.361Z,33.87
2023-04-16T11:28:36.876Z,33.93
2023-04-16T11:31:29.017Z,33.74
2023-04-16T11:34:04.135Z,34.59
2023-04-16T11:36:56.190Z,34.59
2023-04-16T11:39:55.322Z,34.90
2023-04-16T11:42:47.397Z,34.73
2023-04-16T11:45:39.494Z,35.43
2023-04-16T11:48:51.984Z,35.10
2023-04-16T11:51:44.869Z,35.31
2023-04-16T11:54:37.871Z,35.66
2023-04-16T11:57:32.496Z,35.91
2023-04-16T12:00:16.436Z,35.83
2023-04-16T12:02:53.434Z,35.90
2023-04-16T12:05:45.691Z,36.25
2023-04-16T12:08:37.686Z,36.95
2023-04-16T12:11:43.575Z,37.15
2023-04-16T12:14:35.748Z,37.37
2023-04-16T12:17:27.872Z,37.27
2023-04-16T12:20:19.859Z,37.43
2023-04-16T12:23:13.717Z,37.38
2023-04-16T12:26:12.162Z,37.06
2023-04-16T12:29:21.841Z,36.98
2023-04-16T12:32:24.983Z,36.92
2023-04-16T12:35:02.305Z,37.20
2023-04-16T12:37:54.260Z,36.67
2023-04-16T12:40:29.018Z,36.86
2023-04-16T12:43:21.930Z,36.96
2023-04-16T12:46:13.947Z,37.05
2023-04-16T12:49:06.390Z,37.06
2023-04-16T12:51:58.416Z,37.21
2023-04-16T12:54:51.109Z,37.46
2023-04-16T12:57:28.811Z,37.41
2023-04-16T13:00:21.561Z,37.73
2023-04-16T13:03:13.803Z,38.10
2023-04-16T13:06:06.339Z,38.06
2023-04-16T13:08:58.814Z,38.44
2023-04-16T13:11:51.017Z,38.29
2023-04-16T13:14:44.953Z,38.61
2023-04-16T13:17:37.173Z,38.71
2023-04-16T13:20:29.205Z,38.73
2023-04-16T13:23:21.330Z,38.82
2023-04-16T13:26:15.434Z,38.86
2023-04-16T13:29:07.525Z,38.67
2023-04-16T13:31:59.847Z,39.16
2023-04-16T13:34:52.201Z,39.59
2023-04-16T13:37:44.235Z,39.62
2023-04-16T13:40:36.278Z,39.27
2023-04-16T13:43:28.294Z,39.34
2023-04-16T13:46:20.454Z,39.09
2023-04-16T13:49:12.593Z,38.63
2023-04-16T13:52:04.704Z,38.87
2023-04-16T13:54:46.829Z,38.74
2023-04-16T13:57:38.867Z,39.27
2023-04-16T14:00:30.988Z,39.27
2023-04-16T14:03:23.333Z,39.05
2023-04-16T14:06:18.009Z,38.98
2023-04-16T14:09:10.900Z,38.95
2023-04-16T14:12:03.217Z,38.60
2023-04-16T14:14:55.219Z,38.79
2023-04-16T14:17:27.199Z,38.52
2023-04-16T14:20:19.188Z,38.21
2023-04-16T14:23:12.427Z,37.72
2023-04-16T14:26:04.478Z,37.99
2023-04-16T14:28:56.522Z,38.27
2023-04-16T14:31:48.609Z,38.44
2023-04-16T14:34:40.689Z,37.99
2023-04-16T14:37:18.599Z,37.86
2023-04-16T14:40:12.355Z,38.06
2023-04-16T14:43:04.427Z,38.00
2023-04-16T14:45:58.611Z,37.98
2023-04-16T14:48:50.661Z,38.29
2023-04-16T14:51:42.907Z,38.43
2023-04-16T14:54:35.651Z,38.52
2023-04-16T14:57:36.017Z,38.40
2023-04-16T15:00:28.521Z,38.53
2023-04-16T15:03:03.127Z,38.75
2023-04-16T15:05:56.039Z,39.11
2023-04-16T15:08:48.048Z,39.32
2023-04-16T15:11:40.017Z,39.52
2023-04-16T15:14:22.553Z,39.09
2023-04-16T15:17:14.732Z,38.64
2023-04-16T15:20:09.257Z,38.49
2023-04-16T15:23:01.285Z,38.53
2023-04-16T15:25:53.162Z,38.61
2023-04-16T15:28:45.200Z,38.72
2023-04-16T15:31:37.200Z,38.56
2023-04-16T15:34:12.368Z,38.65
2023-04-16T15:37:04.591Z,38.48
2023-04-16T15:39:56.630Z,38.39
2023-04-16T15:42:48.731Z,38.38
2023-04-16T15:45:31.858Z,38.54
2023-04-16T15:48:24.300Z,38.55
2023-04-16T15:51:16.506Z,38.57
2023-04-16T15:54:08.754Z,38.82
2023-04-16T15:57:00.762Z,39.04
2023-04-16T16:00:05.986Z,39.12
2023-04-16T16:02:58.896Z,39.11
2023-04-16T16:05:36.258Z,39.15
2023-04-16T16:08:28.936Z,39.11
2023-04-16T16:11:12.247Z,39.24
2023-04-16T16:14:04.191Z,39.40
2023-04-16T16:16:56.301Z,39.40
2023-04-16T16:19:48.328Z,39.42
2023-04-16T16:22:37.547Z,39.47
2023-04-16T16:25:30.277Z,39.59
2023-04-16T16:28:24.048Z,39.65
2023-04-16T16:31:07.204Z,39.86
2023-04-16T16:33:59.282Z,39.78
2023-04-16T16:36:51.545Z,39.82
2023-04-16T16:39:43.684Z,39.98
2023-04-16T16:42:35.731Z,40.56
2023-04-16T16:45:28.554Z,40.75
2023-04-16T16:48:20.585Z,40.82
2023-04-16T16:50:55.292Z,41.18
2023-04-16T16:53:47.933Z,41.44
2023-04-16T16:56:39.887Z,41.68
2023-04-16T16:59:31.901Z,41.86
2023-04-16T17:02:24.210Z,41.95
2023-04-16T17:05:16.580Z,42.19
2023-04-16T17:08:08.722Z,42.11
2023-04-16T17:11:03.431Z,42.11
2023-04-16T17:13:55.634Z,42.15
2023-04-16T17:16:27.495Z,42.35
2023-04-16T17:19:19.541Z,42.63
2023-04-16T17:22:11.887Z,42.55
2023-04-16T17:24:46.607Z,42.72
2023-04-16T17:27:41.567Z,43.16
2023-04-16T17:30:34.467Z,43.47
2023-04-16T17:33:09.325Z,43.21
2023-04-16T17:36:01.359Z,43.10
2023-04-16T17:38:53.554Z,43.42
2023-04-16T17:41:45.731Z,43.87
2023-04-16T17:44:37.743Z,44.18
2023-04-16T17:47:29.827Z,44.24
2023-04-16T17:50:22.102Z,44.72
2023-04-16T17:53:14.391Z,44.83
2023-04-16T17:55:57.751Z,44.73
2023-04-16T17:58:49.688Z,45.05
2023-04-16T18:01:41.856Z,45.29
2023-04-16T18:04:34.265Z,45.37
2023-04-16T18:07:26.474Z,45.75
2023-04-16T18:10:11.776Z,46.14
2023-04-16T18:13:03.731Z,46.28
2023-04-16T18:15:56.062Z,46.54
2023-04-16T18:18:48.458Z,46.59
2023-04-16T18:21:40.511Z,46.81
2023-04-16T18:24:33.334Z,47.06
2023-04-16T18:27:25.414Z,46.94
2023-04-16T18:30:23.432Z,47.17
2023-04-16T18:36:04.892Z,47.34
2023-04-16T18:38:56.917Z,47.66
2023-04-16T18:41:52.020Z,47.99
2023-04-16T18:44:32.593Z,48.06
2023-04-16T18:47:24.784Z,48.18
2023-04-16T18:50:17.005Z,48.38
2023-04-16T18:53:09.013Z,48.89
2023-04-16T18:56:01.173Z,49.07
2023-04-16T18:58:53.352Z,49.38
2023-04-16T19:01:27.930Z,49.35
2023-04-16T19:04:20.452Z,49.60
2023-04-16T19:07:12.478Z,49.67
2023-04-16T19:09:54.839Z,49.98
2023-04-16T19:12:46.777Z,50.25
2023-04-16T19:15:38.917Z,50.39
2023-04-16T19:18:31.100Z,50.58
2023-04-16T19:21:23.124Z,50.65
2023-04-16T19:23:59.127Z,50.88
2023-04-16T19:26:40.036Z,50.96
2023-04-16T19:29:35.724Z,51.02
2023-04-16T19:32:27.804Z,51.32
2023-04-16T19:35:19.987Z,51.56
2023-04-16T19:38:12.013Z,51.72
2023-04-16T19:40:51.887Z,51.85
2023-04-16T19:43:25.861Z,51.86
2023-04-16T19:46:18.034Z,52.03
2023-04-16T19:49:10.364Z,52.18
2023-04-16T19:52:02.616Z,52.22
2023-04-16T19:54:54.565Z,52.21
2023-04-16T19:57:29.109Z,52.19
2023-04-16T20:00:21.603Z,52.33
2023-04-16T20:03:13.624Z,52.55
2023-04-16T20:05:51.801Z,52.55
2023-04-16T20:08:44.538Z,52.90
2023-04-16T20:11:36.655Z,53.05
2023-04-16T20:14:28.479Z,53.30
2023-04-16T20:17:10.077Z,53.38
2023-04-16T20:20:09.741Z,53.37
2023-04-16T20:23:01.704Z,53.54
2023-04-16T20:25:54.063Z,53.68
2023-04-16T20:28:46.322Z,53.91
2023-04-16T20:31:38.284Z,54.06
2023-04-16T20:34:30.365Z,54.11
2023-04-16T20:37:04.593Z,54.17
2023-04-16T20:39:56.580Z,54.34
2023-04-16T20:42:50.866Z,54.43
2023-04-16T20:45:46.146Z,54.57
2023-04-16T20:48:38.735Z,54.70
2023-04-16T20:51:31.545Z,54.75
2023-04-16T20:54:24.547Z,54.93
2023-04-16T20:57:16.501Z,54.94
2023-04-16T21:00:12.067Z,54.98
2023-04-16T21:03:04.429Z,55.16
2023-04-16T21:05:50.989Z,55.19
2023-04-16T21:08:43.002Z,55.27
2023-04-16T21:11:35.823Z,55.37
2023-04-16T21:14:27.893Z,55.49
2023-04-16T21:17:19.903Z,55.58
2023-04-16T21:20:14.007Z,55.79
2023-04-16T21:23:06.610Z,55.77
2023-04-16T21:25:59.101Z,55.82
2023-04-16T21:28:43.959Z,56.03
2023-04-16T21:31:36.030Z,56.24
2023-04-16T21:34:10.349Z,56.28
2023-04-16T21:36:44.958Z,56.31
2023-04-16T21:39:36.914Z,56.42
2023-04-16T21:42:28.990Z,56.54
2023-04-16T21:45:21.272Z,56.63
2023-04-16T21:47:56.088Z,56.70
2023-04-16T21:50:38.009Z,56.89
2023-04-16T21:53:31.930Z,57.00
2023-04-16T21:56:20.198Z,57.09
2023-04-16T21:59:12.246Z,57.16
2023-04-16T22:02:04.566Z,57.22
2023-04-16T22:04:56.639Z,57.36
2023-04-16T22:07:48.650Z,57.38
2023-04-16T22:10:40.799Z,57.49
2023-04-16T22:13:22.711Z,57.58
2023-04-16T22:16:07.505Z,57.78
2023-04-16T22:18:49.384Z,57.75
2023-04-16T22:21:41.417Z,57.99
2023-04-16T22:24:33.517Z,58.17
2023-04-16T22:27:15.854Z,58.17
2023-04-16T22:30:10.195Z,58.31
2023-04-16T22:33:03.705Z,58.40
2023-04-16T22:35:55.936Z,58.40
2023-04-16T22:38:38.055Z,58.56
2023-04-16T22:41:12.154Z,58.52
2023-04-16T22:43:51.166Z,58.68
2023-04-16T22:46:45.018Z,58.85
2023-04-16T22:49:37.028Z,58.96
2023-04-16T22:52:19.834Z,58.92
2023-04-16T22:55:12.305Z,59.08
2023-04-16T22:58:04.295Z,59.15
2023-04-16T23:00:59.438Z,59.19
2023-04-16T23:03:51.667Z,59.38
2023-04-16T23:06:43.704Z,59.44
2023-04-16T23:09:35.654Z,59.52
2023-04-16T23:12:27.738Z,59.70
2023-04-16T23:15:19.914Z,59.63
2023-04-16T23:18:12.147Z,59.75
2023-04-16T23:21:04.267Z,59.79
2023-04-16T23:23:57.103Z,59.83
2023-04-16T23:26:49.093Z,59.84
2023-04-16T23:29:41.113Z,60.06
2023-04-16T23:32:22.632Z,60.03
2023-04-16T23:35:20.232Z,60.21
2023-04-16T23:38:12.194Z,60.30
2023-04-16T23:41:04.212Z,60.18
2023-04-16T23:43:56.258Z,60.21
2023-04-16T23:46:48.334Z,60.42
2023-04-16T23:49:40.471Z,60.44
2023-04-16T23:52:14.749Z,60.49
2023-04-16T23:55:07.587Z,60.61
2023-04-16T23:57:59.501Z,60.56
